Latest Weather Observations for Inverell RS

IDN60801

Issued at 11:32 pm EST Tuesday 4 August 2015 (issued every 30 minutes, with the page automatically refreshed every 10 minutes)

About weather observations | Map of weather stations | Latest weather observations for NSW | Other Formats
Station Details ID: 056018 Name: INVERELL RESEARCH CENTRE Lat: -29.78 Lon: 151.08 Height: 664.0 m
Data from the previous 72 hours. | See also: Recent months at Inverell RS
Date/Time
EST
Temp
°C
App
Temp
°C
Dew
Point
Rel
Hum
%
Delta-T
°C
Wind Press
QNH
hPa
Press
MSL
hPa
Rain
since 9 am
mm
Dir
 
Spd
km/h
Gust
km/h
Spd
kts
Gust
kts
04/11:30pm 2.6 -1.4 -2.0 72 1.7 SSW 9 15 5 8 1019.3 - 0.0
04/11:00pm 3.2 -0.7 -1.6 71 1.8 SSW 9 15 5 8 1019.6 - 0.0
04/10:30pm 3.3 0.0 -1.2 72 1.7 WSW 6 13 3 7 1019.7 - 0.0
04/10:00pm 3.8 0.3 -1.5 68 2.0 WSW 7 15 4 8 1019.6 - 0.0
04/09:30pm 4.0 0.5 -1.3 68 2.0 W 7 15 4 8 1019.9 - 0.0
04/09:00pm 4.4 0.6 -1.1 67 2.1 W 9 17 5 9 1019.8 1020.0 0.0
04/08:30pm 4.9 1.1 -1.1 65 2.3 W 9 17 5 9 1019.6 - 0.0
04/08:00pm 5.4 1.2 -1.0 63 2.5 W 11 19 6 10 1019.5 - 0.0
04/07:30pm 6.1 1.5 -1.1 60 2.8 WNW 13 24 7 13 1019.4 - 0.0
04/07:00pm 6.6 2.0 -1.0 58 3.0 W 13 20 7 11 1019.3 - 0.0
04/06:30pm 7.3 2.7 -1.0 55 3.3 W 13 19 7 10 1019.3 - 0.0
04/06:00pm 7.7 2.8 -0.2 57 3.2 W 15 24 8 13 1019.0 1019.1 0.0
04/05:30pm 8.4 4.0 0.5 57 3.3 WNW 13 19 7 10 1019.0 - 0.0
04/05:00pm 9.6 5.2 0.3 52 3.9 WNW 13 22 7 12 1018.8 - 0.0
04/04:30pm 10.9 6.3 -1.0 43 4.9 WNW 13 19 7 10 1018.6 - 0.0
04/04:00pm 11.5 7.3 -1.0 42 5.2 W 11 19 6 10 1018.4 - 0.0
04/03:30pm 12.2 8.0 -0.9 40 5.5 W 11 20 6 11 1018.5 - 0.0
04/03:00pm 12.7 8.1 -1.2 38 5.8 WNW 13 28 7 15 1018.6 1018.8 0.0
04/02:30pm 12.9 7.8 0.5 42 5.4 NW 17 32 9 17 1018.8 - 0.0
04/02:00pm 12.4 8.3 0.0 42 5.3 WSW 11 17 6 9 1019.0 - 0.0
04/01:30pm 12.7 9.2 1.1 45 5.1 SSW 9 17 5 9 1019.1 - 0.0
04/01:00pm 12.1 7.5 -0.8 41 5.4 W 13 20 7 11 1019.6 - 0.0
04/12:30pm 12.0 8.5 1.0 47 4.8 S 9 17 5 9 1019.8 - 0.0
04/12:00pm 11.0 6.6 0.1 47 4.6 SW 13 24 7 13 1020.3 1020.6 0.0
04/11:30am 11.0 6.5 -0.2 46 4.7 SW 13 22 7 12 1020.6 - 0.0
04/11:00am 11.1 6.7 0.6 48 4.5 SSW 13 24 7 13 1021.0 - 0.0
04/10:30am 10.3 5.8 0.0 49 4.3 SW 13 22 7 12 1021.0 - 0.0
04/10:00am 9.3 4.6 0.8 55 3.6 SW 15 20 8 11 1021.2 - 0.0
04/09:30am 7.9 3.7 1.8 65 2.6 SSW 13 19 7 10 1021.4 - 0.0
04/09:00am 7.0 2.4 1.8 69 2.2 SW 15 24 8 13 1021.3 1021.4 0.0
04/08:30am 6.3 2.4 1.0 69 2.2 SSW 11 19 6 10 1021.3 - 0.0
04/08:00am 5.2 0.8 0.5 72 1.9 S 13 17 7 9 1021.3 - 0.0
04/07:30am 4.0 0.0 0.7 79 1.3 SSW 11 15 6 8 1021.4 - 0.0
04/07:00am 3.4 -1.0 0.3 80 1.2 S 13 17 7 9 1021.1 - 0.0
04/06:30am 3.2 -1.2 0.4 82 1.1 S 13 17 7 9 1020.9 - 0.0
04/06:00am 3.2 -0.8 0.4 82 1.1 S 11 19 6 10 1020.6 1020.8 0.0
04/05:30am 3.6 -0.8 0.6 81 1.2 S 13 17 7 9 1020.4 - 0.0
04/05:00am 3.9 -0.1 0.6 79 1.3 S 11 17 6 9 1020.3 - 0.0
04/04:30am 3.9 -0.4 0.9 81 1.2 S 13 17 7 9 1020.0 - 0.0
04/04:00am 4.8 0.4 0.6 74 1.7 SSW 13 19 7 10 1020.0 - 0.0
04/03:30am 4.7 0.4 0.7 75 1.6 SSW 13 24 7 13 1020.0 - 0.0
04/03:00am 4.6 0.3 0.9 77 1.5 SSW 13 20 7 11 1020.0 1020.2 0.0
04/02:30am 4.8 0.1 1.1 77 1.5 SSW 15 24 8 13 1019.8 - 0.0
04/02:00am 5.4 0.3 1.0 73 1.8 SSW 17 32 9 17 1020.0 - 0.0
04/01:30am 5.7 0.3 1.1 72 1.9 SSW 19 30 10 16 1020.3 - 0.0
04/01:00am 5.8 0.8 1.2 72 1.9 SSW 17 26 9 14 1020.6 - 0.0
04/12:30am 6.2 1.2 1.1 70 2.1 SSW 17 26 9 14 1020.7 - 0.0
04/12:00am 6.2 2.0 1.4 71 2.0 SSW 13 20 7 11 1020.8 1021.1 0.0
 
Date/Time
EST
Temp
°C
App
Temp
°C
Dew
Point
Rel
Hum
%
Delta-T
°C
Wind Press
QNH
hPa
Press
MSL
hPa
Rain
since 9 am
mm
Dir
 
Spd
km/h
Gust
km/h
Spd
kts
Gust
kts
03/11:30pm 6.2 2.0 1.4 71 2.0 S 13 19 7 10 1021.0 - 0.0
03/11:00pm 6.7 2.4 1.2 68 2.3 S 13 22 7 12 1021.0 - 0.0
03/10:30pm 6.9 2.7 1.4 68 2.3 S 13 20 7 11 1021.0 - 0.0
03/10:00pm 7.3 3.8 1.3 65 2.5 SSW 9 13 5 7 1021.1 - 0.0
03/09:30pm 7.8 4.2 0.3 59 3.1 SSW 9 13 5 7 1020.9 - 0.0
03/09:00pm 8.7 4.9 -0.7 51 3.8 SSW 9 15 5 8 1020.7 1020.9 0.0
03/08:30pm 8.8 4.6 -1.2 49 4.0 SSW 11 19 6 10 1020.6 - 0.0
03/08:00pm 9.4 5.0 -2.3 44 4.6 SSW 11 19 6 10 1020.6 - 0.0
03/07:30pm 9.7 5.8 -1.5 45 4.5 SSW 9 17 5 9 1020.2 - 0.0
03/07:00pm 10.9 7.7 -0.7 44 4.8 N 6 11 3 6 1019.9 - 0.0
03/06:30pm 11.2 7.1 -0.2 45 4.8 W 11 17 6 9 1019.6 - 0.0
03/06:00pm 12.4 8.1 -1.3 38 5.7 WNW 11 19 6 10 1019.2 1019.4 0.0
03/05:30pm 13.2 9.4 -0.4 39 5.8 WNW 9 15 5 8 1018.8 - 0.0
03/05:00pm 14.5 10.6 1.4 41 5.9 WNW 11 17 6 9 1018.4 - 0.0
03/04:30pm 15.9 11.8 2.3 40 6.3 WNW 13 20 7 11 1018.1 - 0.0
03/04:00pm 17.7 13.6 -2.9 24 8.7 SW 9 15 5 8 1017.8 - 0.0
03/03:30pm 18.3 14.6 0.2 29 8.2 WSW 9 15 5 8 1017.5 - 0.0
03/03:00pm 18.6 15.6 6.1 44 6.4 WSW 11 20 6 11 1017.4 1017.5 0.0
03/02:30pm 18.5 15.4 5.6 42 6.5 W 11 19 6 10 1017.2 - 0.0
03/02:00pm 18.5 15.2 4.8 40 6.8 WNW 11 22 6 12 1017.2 - 0.0
03/01:30pm 18.4 14.8 5.0 41 6.7 W 13 26 7 14 1017.5 - 0.0
03/01:00pm 18.7 15.3 5.7 42 6.6 W 13 19 7 10 1017.7 - 0.0
03/12:30pm 18.5 14.7 5.6 42 6.5 W 15 24 8 13 1017.9 - 0.0
03/12:00pm 18.5 14.4 4.3 39 7.0 WNW 15 22 8 12 1018.0 1018.2 0.0
03/11:30am 18.2 13.8 4.9 41 6.6 NW 17 24 9 13 1018.3 - 0.0
03/11:00am 17.9 15.8 8.3 53 5.1 NNW 9 13 5 7 1018.8 - 0.0
03/10:30am 16.5 13.9 7.6 55 4.6 N 11 17 6 9 1019.1 - 0.0
03/10:00am 15.1 12.0 7.3 59 4.0 N 13 15 7 8 1019.2 - 0.0
03/09:30am 14.8 12.0 6.9 59 4.0 N 11 15 6 8 1019.3 - 0.0
03/09:00am 14.0 11.6 7.1 63 3.5 N 9 13 5 7 1019.2 1019.4 0.0
03/08:30am 13.2 11.3 7.5 68 2.9 N 7 9 4 5 1019.1 - 0.0
03/08:00am 12.0 11.2 6.5 69 2.7 CALM 0 6 0 3 1018.7 - 0.0
03/07:30am 9.5 8.5 5.5 76 1.9 CALM 0 0 0 0 1018.3 - 0.0
03/07:00am 8.5 7.4 5.0 78 1.6 CALM 0 6 0 3 1018.3 - 0.0
03/06:30am 9.1 8.0 5.0 75 1.9 CALM 0 0 0 0 1018.0 - 0.0
03/06:00am 8.8 6.3 4.9 76 1.8 SSE 7 9 4 5 1017.9 1018.1 0.0
03/05:30am 8.7 7.2 4.8 76 1.8 SE 2 7 1 4 1017.7 - 0.0
03/05:00am 8.2 7.1 5.2 81 1.4 CALM 0 0 0 0 1017.6 - 0.0
03/04:30am 8.1 7.0 5.3 82 1.3 CALM 0 0 0 0 1017.6 - 0.0
03/04:00am 8.7 7.3 5.3 79 1.6 N 2 7 1 4 1017.7 - 0.0
03/03:30am 8.5 6.2 5.7 82 1.3 NNW 7 13 4 7 1017.8 - 0.0
03/03:00am 10.9 7.5 5.7 70 2.5 NNW 13 17 7 9 1017.8 1018.0 0.0
03/02:30am 9.7 6.7 6.2 79 1.7 NW 11 15 6 8 1018.0 - 0.0
03/02:00am 9.3 8.0 6.2 81 1.5 SSW 2 7 1 4 1018.4 - 0.0
03/01:30am 9.2 8.4 6.5 83 1.3 CALM 0 0 0 0 1018.6 - 0.0
03/01:00am 9.7 9.0 6.8 82 1.4 CALM 0 0 0 0 1019.1 - 0.0
03/12:30am 9.8 9.0 6.7 81 1.5 CALM 0 0 0 0 1019.3 - 0.0
03/12:00am 9.7 9.0 6.8 82 1.4 CALM 0 0 0 0 1019.5 1019.7 0.0
 
Date/Time
EST
Temp
°C
App
Temp
°C
Dew
Point
Rel
Hum
%
Delta-T
°C
Wind Press
QNH
hPa
Press
MSL
hPa
Rain
since 9 am
mm
Dir
 
Spd
km/h
Gust
km/h
Spd
kts
Gust
kts
02/11:30pm 10.3 9.6 6.8 79 1.7 CALM 0 0 0 0 1019.6 - 0.0
02/11:00pm 10.0 9.2 6.7 80 1.6 CALM 0 0 0 0 1019.7 - 0.0
02/10:30pm 10.9 9.4 6.8 76 2.0 SE 4 7 2 4 1020.0 - 0.0
02/10:00pm 11.4 10.7 6.9 74 2.2 CALM 0 0 0 0 1020.2 - 0.0
02/09:30pm 11.9 10.9 7.3 73 2.3 NNW 2 6 1 3 1020.3 - 0.0
02/09:00pm 12.6 12.0 7.4 70 2.6 CALM 0 0 0 0 1020.4 1020.7 0.0
02/08:30pm 13.1 11.1 6.9 66 3.1 NNW 7 7 4 4 1020.6 - 0.0
02/08:00pm 13.6 11.3 7.3 65 3.2 NW 9 11 5 6 1020.4 - 0.0
02/07:30pm 13.5 11.6 7.4 66 3.1 NNW 7 11 4 6 1020.3 - 0.0
02/07:00pm 14.6 12.4 8.0 64 3.4 NW 9 13 5 7 1020.1 - 0.0
02/06:30pm 14.8 12.5 7.6 62 3.7 NW 9 13 5 7 1019.7 - 0.0
02/06:00pm 16.3 13.5 6.9 53 4.8 NW 11 17 6 9 1019.4 1019.6 0.0
02/05:30pm 17.1 13.9 6.7 50 5.3 NNW 13 19 7 10 1019.1 - 0.0
02/05:00pm 18.4 14.3 6.0 44 6.3 NNW 17 22 9 12 1019.1 - 0.0
02/04:30pm 19.3 14.7 5.7 41 6.9 NNW 19 28 10 15 1019.0 - 0.0
02/04:00pm 19.8 15.2 5.7 39 7.2 NNW 19 28 10 15 1018.7 - 0.0
02/03:30pm 20.4 15.5 5.2 37 7.7 NNW 20 30 11 16 1018.8 - 0.0
02/03:00pm 20.5 14.7 4.3 34 8.1 NNW 24 33 13 18 1019.2 1019.5 0.0
02/02:30pm 20.8 15.3 3.9 33 8.4 NNW 22 32 12 17 1019.4 - 0.0
02/02:00pm 20.8 15.7 4.2 33 8.3 NNW 20 33 11 18 1019.4 - 0.0
02/01:30pm 20.9 15.6 4.9 35 8.1 NNW 22 33 12 18 1019.7 - 0.0
02/01:00pm 20.9 16.0 4.9 35 8.1 NNW 20 32 11 17 1020.2 - 0.0
02/12:30pm 21.1 16.7 6.5 38 7.6 NNW 19 26 10 14 1020.8 - 0.0
02/12:00pm 20.0 15.3 6.0 40 7.2 N 20 32 11 17 1021.3 1021.5 0.0
02/11:30am 19.0 15.0 6.6 44 6.4 N 17 22 9 12 1021.9 - 0.0
02/11:00am 18.2 14.2 6.5 46 6.0 N 17 24 9 13 1022.5 - 0.0
02/10:30am 15.9 12.5 6.1 52 4.9 N 13 20 7 11 1023.1 - 0.0
02/10:00am 15.2 11.3 5.4 52 4.8 N 15 20 8 11 1023.3 - 0.0
02/09:30am 14.5 10.1 4.5 51 4.8 N 17 26 9 14 1023.4 - 0.0
02/09:00am 14.0 10.3 4.3 52 4.6 N 13 17 7 9 1023.4 1023.6 0.0
02/08:30am 12.9 10.6 4.7 57 3.9 N 6 9 3 5 1023.2 - 0.0
02/08:00am 10.5 9.2 4.2 65 2.9 CALM 0 0 0 0 1023.2 - 0.0
02/07:30am 8.7 7.3 3.6 70 2.3 CALM 0 0 0 0 1023.1 - 0.0
02/07:00am 6.8 5.1 2.1 72 2.0 CALM 0 6 0 3 1022.7 - 0.0
02/06:30am 6.3 3.5 1.8 73 1.9 NNW 6 9 3 5 1022.5 - 0.0
02/06:00am 6.3 3.3 2.3 75 1.7 NNW 7 7 4 4 1022.4 1022.6 0.0
02/05:30am 5.9 4.2 2.1 76 1.6 CALM 0 0 0 0 1022.3 - 0.0
02/05:00am 6.0 3.9 2.0 75 1.7 ENE 2 6 1 3 1021.9 - 0.0
02/04:30am 7.3 5.6 1.9 68 2.3 CALM 0 0 0 0 1021.9 - 0.0
02/04:00am 8.0 6.0 2.2 67 2.5 ESE 2 7 1 4 1022.0 - 0.0
02/03:30am 8.8 7.1 2.1 63 2.9 CALM 0 0 0 0 1022.0 - 0.0
02/03:00am 8.2 6.5 1.9 64 2.7 CALM 0 0 0 0 1022.5 1022.7 0.0
02/02:30am 8.6 5.8 1.9 63 2.9 SE 6 7 3 4 1022.6 - 0.0
02/02:00am 8.0 4.7 2.2 67 2.5 SE 9 11 5 6 1022.7 - 0.0
02/01:30am 7.8 4.9 2.5 69 2.3 SSE 7 9 4 5 1022.7 - 0.0
02/01:00am 7.7 4.8 2.4 69 2.3 SSE 7 9 4 5 1022.9 - 0.0
02/12:30am 8.1 5.2 2.6 68 2.4 SSE 7 9 4 5 1023.0 - 0.0
02/12:00am 8.5 5.6 2.5 66 2.6 SSE 7 9 4 5 1023.1 1023.4 0.0

Other Formats:

Comma delimited format used in spreadsheet applications
http://www.bom.gov.au/fwo/IDN60801/IDN60801.94541.axf

JavaScript Object Notation format (JSON) in row-major order
http://www.bom.gov.au/fwo/IDN60801/IDN60801.94541.json